sensor_id;sensor_type;location;lat;lon;timestamp;temperature;humidity
43673;DHT22;41723;49.326;8.430;2023-11-18T00:00:09;8.90;99.90
43673;DHT22;41723;49.326;8.430;2023-11-18T00:02:38;8.90;99.90
43673;DHT22;41723;49.326;8.430;2023-11-18T00:05:04;8.90;99.90
43673;DHT22;41723;49.326;8.430;2023-11-18T00:07:29;8.80;99.90
43673;DHT22;41723;49.326;8.430;2023-11-18T00:09:57;8.60;99.90
43673;DHT22;41723;49.326;8.430;2023-11-18T00:12:23;8.60;99.90
43673;DHT22;41723;49.326;8.430;2023-11-18T00:14:49;8.60;99.90
43673;DHT22;41723;49.326;8.430;2023-11-18T00:17:15;8.60;99.90
43673;DHT22;41723;49.326;8.430;2023-11-18T00:19:41;8.60;99.90
43673;DHT22;41723;49.326;8.430;2023-11-18T00:22:08;8.60;99.90
43673;DHT22;41723;49.326;8.430;2023-11-18T00:24:33;8.70;99.90
43673;DHT22;41723;49.326;8.430;2023-11-18T00:27:03;8.70;99.90
43673;DHT22;41723;49.326;8.430;2023-11-18T00:29:32;8.70;99.90
43673;DHT22;41723;49.326;8.430;2023-11-18T00:31:58;8.70;99.90
43673;DHT22;41723;49.326;8.430;2023-11-18T00:34:23;8.60;99.90
43673;DHT22;41723;49.326;8.430;2023-11-18T00:36:50;8.60;99.90
43673;DHT22;41723;49.326;8.430;2023-11-18T00:39:17;8.60;99.90
43673;DHT22;41723;49.326;8.430;2023-11-18T00:41:43;8.50;99.90
43673;DHT22;41723;49.326;8.430;2023-11-18T00:44:08;8.50;99.90
43673;DHT22;41723;49.326;8.430;2023-11-18T00:46:35;8.50;99.90
43673;DHT22;41723;49.326;8.430;2023-11-18T00:49:02;8.60;99.90
43673;DHT22;41723;49.326;8.430;2023-11-18T00:51:27;8.60;99.90
43673;DHT22;41723;49.326;8.430;2023-11-18T00:53:54;8.70;99.90
43673;DHT22;41723;49.326;8.430;2023-11-18T00:56:20;8.70;99.90
43673;DHT22;41723;49.326;8.430;2023-11-18T00:58:50;8.80;99.90
43673;DHT22;41723;49.326;8.430;2023-11-18T01:01:15;8.80;99.90
43673;DHT22;41723;49.326;8.430;2023-11-18T01:03:43;8.80;99.90
43673;DHT22;41723;49.326;8.430;2023-11-18T01:06:09;8.80;99.90
43673;DHT22;41723;49.326;8.430;2023-11-18T01:08:35;8.90;99.90
43673;DHT22;41723;49.326;8.430;2023-11-18T01:11:00;8.90;99.90
43673;DHT22;41723;49.326;8.430;2023-11-18T01:13:26;9.00;99.90
43673;DHT22;41723;49.326;8.430;2023-11-18T01:15:52;8.90;99.90
43673;DHT22;41723;49.326;8.430;2023-11-18T01:18:17;8.90;99.90
43673;DHT22;41723;49.326;8.430;2023-11-18T01:20:43;9.00;99.90
43673;DHT22;41723;49.326;8.430;2023-11-18T01:23:10;8.90;99.90
43673;DHT22;41723;49.326;8.430;2023-11-18T01:25:35;8.90;99.90
43673;DHT22;41723;49.326;8.430;2023-11-18T01:28:01;8.90;99.90
43673;DHT22;41723;49.326;8.430;2023-11-18T01:30:29;8.90;99.90
43673;DHT22;41723;49.326;8.430;2023-11-18T01:32:54;8.80;99.90
43673;DHT22;41723;49.326;8.430;2023-11-18T01:35:20;8.90;99.90
43673;DHT22;41723;49.326;8.430;2023-11-18T01:37:46;8.90;99.90
43673;DHT22;41723;49.326;8.430;2023-11-18T01:40:13;8.90;99.90
43673;DHT22;41723;49.326;8.430;2023-11-18T01:42:44;8.90;99.90
43673;DHT22;41723;49.326;8.430;2023-11-18T01:45:12;8.90;99.90
43673;DHT22;41723;49.326;8.430;2023-11-18T01:47:38;9.00;99.90
43673;DHT22;41723;49.326;8.430;2023-11-18T01:50:05;8.90;99.90
43673;DHT22;41723;49.326;8.430;2023-11-18T01:52:32;8.90;99.90
43673;DHT22;41723;49.326;8.430;2023-11-18T01:54:59;8.90;99.90
43673;DHT22;41723;49.326;8.430;2023-11-18T01:57:24;8.90;99.90
43673;DHT22;41723;49.326;8.430;2023-11-18T01:59:53;8.80;99.90
43673;DHT22;41723;49.326;8.430;2023-11-18T02:02:19;8.80;99.90
43673;DHT22;41723;49.326;8.430;2023-11-18T02:04:46;8.90;99.90
43673;DHT22;41723;49.326;8.430;2023-11-18T02:07:12;8.90;99.90
43673;DHT22;41723;49.326;8.430;2023-11-18T02:09:40;8.90;99.90
43673;DHT22;41723;49.326;8.430;2023-11-18T02:12:21;8.90;99.90
43673;DHT22;41723;49.326;8.430;2023-11-18T02:14:47;8.90;99.90
43673;DHT22;41723;49.326;8.430;2023-11-18T02:17:14;9.00;99.90
43673;DHT22;41723;49.326;8.430;2023-11-18T02:19:42;8.90;99.90
43673;DHT22;41723;49.326;8.430;2023-11-18T02:22:09;8.90;99.90
43673;DHT22;41723;49.326;8.430;2023-11-18T02:24:36;8.90;99.90
43673;DHT22;41723;49.326;8.430;2023-11-18T02:27:03;8.90;99.90
43673;DHT22;41723;49.326;8.430;2023-11-18T02:29:30;8.80;99.90
43673;DHT22;41723;49.326;8.430;2023-11-18T02:32:15;8.80;99.90
43673;DHT22;41723;49.326;8.430;2023-11-18T02:34:48;8.80;99.90
43673;DHT22;41723;49.326;8.430;2023-11-18T02:37:15;8.80;99.90
43673;DHT22;41723;49.326;8.430;2023-11-18T02:39:43;8.70;99.90
43673;DHT22;41723;49.326;8.430;2023-11-18T02:42:09;8.70;99.90
43673;DHT22;41723;49.326;8.430;2023-11-18T02:44:35;8.80;99.90
43673;DHT22;41723;49.326;8.430;2023-11-18T02:47:02;8.80;99.90
43673;DHT22;41723;49.326;8.430;2023-11-18T02:49:29;8.80;99.90
43673;DHT22;41723;49.326;8.430;2023-11-18T02:51:55;8.80;99.90
43673;DHT22;41723;49.326;8.430;2023-11-18T02:54:21;8.80;99.90
43673;DHT22;41723;49.326;8.430;2023-11-18T02:56:46;8.80;99.90
43673;DHT22;41723;49.326;8.430;2023-11-18T02:59:12;8.80;99.90
43673;DHT22;41723;49.326;8.430;2023-11-18T03:01:38;8.90;99.90
43673;DHT22;41723;49.326;8.430;2023-11-18T03:04:07;8.90;99.90
43673;DHT22;41723;49.326;8.430;2023-11-18T03:06:34;9.00;99.90
43673;DHT22;41723;49.326;8.430;2023-11-18T03:09:01;8.90;99.90
43673;DHT22;41723;49.326;8.430;2023-11-18T03:11:26;8.80;99.90
43673;DHT22;41723;49.326;8.430;2023-11-18T03:13:56;8.80;99.90
43673;DHT22;41723;49.326;8.430;2023-11-18T03:16:23;8.80;99.90
43673;DHT22;41723;49.326;8.430;2023-11-18T03:18:50;8.80;99.90
43673;DHT22;41723;49.326;8.430;2023-11-18T03:21:16;8.70;99.90
43673;DHT22;41723;49.326;8.430;2023-11-18T03:23:41;8.60;99.90
43673;DHT22;41723;49.326;8.430;2023-11-18T03:26:08;8.60;99.90
43673;DHT22;41723;49.326;8.430;2023-11-18T03:28:33;8.70;99.90
43673;DHT22;41723;49.326;8.430;2023-11-18T03:31:00;8.60;99.90
43673;DHT22;41723;49.326;8.430;2023-11-18T03:33:27;8.50;99.90
43673;DHT22;41723;49.326;8.430;2023-11-18T03:35:52;8.60;99.90
43673;DHT22;41723;49.326;8.430;2023-11-18T03:38:18;8.60;99.90
43673;DHT22;41723;49.326;8.430;2023-11-18T03:40:43;8.60;99.90
43673;DHT22;41723;49.326;8.430;2023-11-18T03:43:10;8.70;99.90
43673;DHT22;41723;49.326;8.430;2023-11-18T03:45:40;8.70;99.90
43673;DHT22;41723;49.326;8.430;2023-11-18T03:48:07;8.70;99.90
43673;DHT22;41723;49.326;8.430;2023-11-18T03:50:33;8.70;99.90
43673;DHT22;41723;49.326;8.430;2023-11-18T03:52:58;8.70;99.90
43673;DHT22;41723;49.326;8.430;2023-11-18T03:55:24;8.70;99.90
43673;DHT22;41723;49.326;8.430;2023-11-18T03:57:52;8.70;99.90
43673;DHT22;41723;49.326;8.430;2023-11-18T04:00:19;8.70;99.90
43673;DHT22;41723;49.326;8.430;2023-11-18T04:02:45;8.60;99.90
43673;DHT22;41723;49.326;8.430;2023-11-18T04:05:11;8.60;99.90
43673;DHT22;41723;49.326;8.430;2023-11-18T04:07:37;8.50;99.90
43673;DHT22;41723;49.326;8.430;2023-11-18T04:10:03;8.50;99.90
43673;DHT22;41723;49.326;8.430;2023-11-18T04:12:33;8.50;99.90
43673;DHT22;41723;49.326;8.430;2023-11-18T04:14:59;8.50;99.90
43673;DHT22;41723;49.326;8.430;2023-11-18T04:17:24;8.60;99.90
43673;DHT22;41723;49.326;8.430;2023-11-18T04:19:53;8.60;99.90
43673;DHT22;41723;49.326;8.430;2023-11-18T04:22:21;8.60;99.90
43673;DHT22;41723;49.326;8.430;2023-11-18T04:24:47;8.60;99.90
43673;DHT22;41723;49.326;8.430;2023-11-18T04:27:13;8.40;99.90
43673;DHT22;41723;49.326;8.430;2023-11-18T04:29:38;8.50;99.90
43673;DHT22;41723;49.326;8.430;2023-11-18T04:32:06;8.40;99.90
43673;DHT22;41723;49.326;8.430;2023-11-18T04:34:36;8.30;99.90
43673;DHT22;41723;49.326;8.430;2023-11-18T04:37:03;8.30;99.90
43673;DHT22;41723;49.326;8.430;2023-11-18T04:39:33;8.30;99.90
43673;DHT22;41723;49.326;8.430;2023-11-18T04:41:59;8.20;99.90
43673;DHT22;41723;49.326;8.430;2023-11-18T04:44:24;8.20;99.90
43673;DHT22;41723;49.326;8.430;2023-11-18T04:46:50;8.20;99.90
43673;DHT22;41723;49.326;8.430;2023-11-18T04:49:17;8.20;99.90
43673;DHT22;41723;49.326;8.430;2023-11-18T04:51:43;8.10;99.90
43673;DHT22;41723;49.326;8.430;2023-11-18T04:54:08;8.20;99.90
43673;DHT22;41723;49.326;8.430;2023-11-18T04:56:36;8.00;99.90
43673;DHT22;41723;49.326;8.430;2023-11-18T04:59:02;8.10;99.90
43673;DHT22;41723;49.326;8.430;2023-11-18T05:01:28;8.10;99.90
43673;DHT22;41723;49.326;8.430;2023-11-18T05:03:54;8.00;99.90
43673;DHT22;41723;49.326;8.430;2023-11-18T05:06:19;8.00;99.90
43673;DHT22;41723;49.326;8.430;2023-11-18T05:08:45;8.00;99.90
43673;DHT22;41723;49.326;8.430;2023-11-18T05:11:11;8.10;99.90
43673;DHT22;41723;49.326;8.430;2023-11-18T05:13:38;8.00;99.90
43673;DHT22;41723;49.326;8.430;2023-11-18T05:16:05;8.00;99.90
43673;DHT22;41723;49.326;8.430;2023-11-18T05:18:31;8.00;99.90
43673;DHT22;41723;49.326;8.430;2023-11-18T05:21:01;8.00;99.90
43673;DHT22;41723;49.326;8.430;2023-11-18T05:23:27;7.90;99.90
43673;DHT22;41723;49.326;8.430;2023-11-18T05:25:54;7.80;99.90
43673;DHT22;41723;49.326;8.430;2023-11-18T05:28:21;7.80;99.90
43673;DHT22;41723;49.326;8.430;2023-11-18T05:30:47;7.80;99.90
43673;DHT22;41723;49.326;8.430;2023-11-18T05:33:13;7.70;99.90
43673;DHT22;41723;49.326;8.430;2023-11-18T05:35:43;7.70;99.90
43673;DHT22;41723;49.326;8.430;2023-11-18T05:38:17;7.60;99.90
43673;DHT22;41723;49.326;8.430;2023-11-18T05:40:45;7.60;99.90
43673;DHT22;41723;49.326;8.430;2023-11-18T05:43:25;7.60;99.90
43673;DHT22;41723;49.326;8.430;2023-11-18T05:45:53;7.60;99.90
43673;DHT22;41723;49.326;8.430;2023-11-18T05:48:38;7.50;99.90
43673;DHT22;41723;49.326;8.430;2023-11-18T05:51:03;7.40;99.90
43673;DHT22;41723;49.326;8.430;2023-11-18T05:53:29;7.40;99.90
43673;DHT22;41723;49.326;8.430;2023-11-18T05:55:55;7.40;99.90
43673;DHT22;41723;49.326;8.430;2023-11-18T05:58:21;7.30;99.90
43673;DHT22;41723;49.326;8.430;2023-11-18T06:00:47;7.20;99.90
43673;DHT22;41723;49.326;8.430;2023-11-18T06:03:12;7.10;99.90
43673;DHT22;41723;49.326;8.430;2023-11-18T06:05:38;7.00;99.90
43673;DHT22;41723;49.326;8.430;2023-11-18T06:08:03;7.00;99.90
43673;DHT22;41723;49.326;8.430;2023-11-18T06:10:29;6.90;99.90
43673;DHT22;41723;49.326;8.430;2023-11-18T06:12:57;7.00;99.90
43673;DHT22;41723;49.326;8.430;2023-11-18T06:15:24;6.90;99.90
43673;DHT22;41723;49.326;8.430;2023-11-18T06:17:49;6.90;99.90
43673;DHT22;41723;49.326;8.430;2023-11-18T06:20:15;6.90;99.90
43673;DHT22;41723;49.326;8.430;2023-11-18T06:22:42;6.80;99.90
43673;DHT22;41723;49.326;8.430;2023-11-18T06:25:08;6.80;99.90
43673;DHT22;41723;49.326;8.430;2023-11-18T06:27:34;6.70;99.90
43673;DHT22;41723;49.326;8.430;2023-11-18T06:30:01;6.70;99.90
43673;DHT22;41723;49.326;8.430;2023-11-18T06:32:27;6.80;99.90
43673;DHT22;41723;49.326;8.430;2023-11-18T06:34:53;6.80;99.90
43673;DHT22;41723;49.326;8.430;2023-11-18T06:37:19;6.70;99.90
43673;DHT22;41723;49.326;8.430;2023-11-18T06:39:44;6.60;99.90
43673;DHT22;41723;49.326;8.430;2023-11-18T06:42:13;6.80;99.90
43673;DHT22;41723;49.326;8.430;2023-11-18T06:44:39;6.70;99.90
43673;DHT22;41723;49.326;8.430;2023-11-18T06:47:05;6.60;99.90
43673;DHT22;41723;49.326;8.430;2023-11-18T06:49:32;6.60;99.90
43673;DHT22;41723;49.326;8.430;2023-11-18T06:52:02;6.70;99.90
43673;DHT22;41723;49.326;8.430;2023-11-18T06:54:29;6.80;99.90
43673;DHT22;41723;49.326;8.430;2023-11-18T06:56:55;6.90;99.90
43673;DHT22;41723;49.326;8.430;2023-11-18T06:59:21;7.00;99.90
43673;DHT22;41723;49.326;8.430;2023-11-18T07:01:47;7.20;99.90
43673;DHT22;41723;49.326;8.430;2023-11-18T07:04:12;7.20;99.90
43673;DHT22;41723;49.326;8.430;2023-11-18T07:06:39;7.20;99.90
43673;DHT22;41723;49.326;8.430;2023-11-18T07:09:05;7.40;99.90
43673;DHT22;41723;49.326;8.430;2023-11-18T07:11:43;7.40;99.90
43673;DHT22;41723;49.326;8.430;2023-11-18T07:14:12;7.60;99.90
43673;DHT22;41723;49.326;8.430;2023-11-18T07:16:38;7.60;99.90
43673;DHT22;41723;49.326;8.430;2023-11-18T07:19:04;7.50;99.90
43673;DHT22;41723;49.326;8.430;2023-11-18T07:21:30;7.60;99.90
43673;DHT22;41723;49.326;8.430;2023-11-18T07:23:56;7.50;99.90
43673;DHT22;41723;49.326;8.430;2023-11-18T07:26:22;7.40;99.90
43673;DHT22;41723;49.326;8.430;2023-11-18T07:28:49;7.50;99.90
43673;DHT22;41723;49.326;8.430;2023-11-18T07:31:15;7.50;99.90
43673;DHT22;41723;49.326;8.430;2023-11-18T07:33:44;7.40;99.90
43673;DHT22;41723;49.326;8.430;2023-11-18T07:36:15;7.40;99.90
43673;DHT22;41723;49.326;8.430;2023-11-18T07:38:41;7.30;99.90
43673;DHT22;41723;49.326;8.430;2023-11-18T07:41:06;7.40;99.90
43673;DHT22;41723;49.326;8.430;2023-11-18T07:43:37;7.40;99.90
43673;DHT22;41723;49.326;8.430;2023-11-18T07:46:02;7.40;99.90
43673;DHT22;41723;49.326;8.430;2023-11-18T07:48:28;7.50;99.90
43673;DHT22;41723;49.326;8.430;2023-11-18T07:50:56;7.60;99.90
43673;DHT22;41723;49.326;8.430;2023-11-18T07:53:22;7.60;99.90
43673;DHT22;41723;49.326;8.430;2023-11-18T07:55:48;7.50;99.90
43673;DHT22;41723;49.326;8.430;2023-11-18T07:58:15;7.60;99.90
43673;DHT22;41723;49.326;8.430;2023-11-18T08:00:43;7.60;99.90
43673;DHT22;41723;49.326;8.430;2023-11-18T08:03:10;7.60;99.90
43673;DHT22;41723;49.326;8.430;2023-11-18T08:05:40;7.70;99.90
43673;DHT22;41723;49.326;8.430;2023-11-18T08:08:06;7.70;99.90
43673;DHT22;41723;49.326;8.430;2023-11-18T08:10:36;7.70;99.90
43673;DHT22;41723;49.326;8.430;2023-11-18T08:13:05;7.70;99.90
43673;DHT22;41723;49.326;8.430;2023-11-18T08:15:32;7.70;99.90
43673;DHT22;41723;49.326;8.430;2023-11-18T08:17:57;7.70;99.90
43673;DHT22;41723;49.326;8.430;2023-11-18T08:20:23;7.80;99.90
43673;DHT22;41723;49.326;8.430;2023-11-18T08:22:50;7.80;99.90
43673;DHT22;41723;49.326;8.430;2023-11-18T08:25:16;7.80;99.90
43673;DHT22;41723;49.326;8.430;2023-11-18T08:27:43;7.90;99.90
43673;DHT22;41723;49.326;8.430;2023-11-18T08:30:08;7.80;99.90
43673;DHT22;41723;49.326;8.430;2023-11-18T08:32:38;7.90;99.90
43673;DHT22;41723;49.326;8.430;2023-11-18T08:35:05;7.90;99.90
43673;DHT22;41723;49.326;8.430;2023-11-18T08:37:39;7.90;99.90
43673;DHT22;41723;49.326;8.430;2023-11-18T08:40:05;8.00;99.90
43673;DHT22;41723;49.326;8.430;2023-11-18T08:42:49;7.90;99.90
43673;DHT22;41723;49.326;8.430;2023-11-18T08:45:15;8.00;99.90
43673;DHT22;41723;49.326;8.430;2023-11-18T08:47:42;8.00;99.90
43673;DHT22;41723;49.326;8.430;2023-11-18T08:50:08;8.10;99.90
43673;DHT22;41723;49.326;8.430;2023-11-18T08:52:38;8.20;99.90
43673;DHT22;41723;49.326;8.430;2023-11-18T08:55:09;8.10;99.90
43673;DHT22;41723;49.326;8.430;2023-11-18T08:57:38;8.00;99.90
43673;DHT22;41723;49.326;8.430;2023-11-18T09:00:17;8.10;99.90
43673;DHT22;41723;49.326;8.430;2023-11-18T09:03:02;8.10;99.90
43673;DHT22;41723;49.326;8.430;2023-11-18T09:05:33;8.30;99.90
43673;DHT22;41723;49.326;8.430;2023-11-18T09:08:01;8.20;99.90
43673;DHT22;41723;49.326;8.430;2023-11-18T09:10:28;8.20;99.90
43673;DHT22;41723;49.326;8.430;2023-11-18T09:12:54;8.30;99.90
43673;DHT22;41723;49.326;8.430;2023-11-18T09:15:20;8.30;99.90
43673;DHT22;41723;49.326;8.430;2023-11-18T09:17:49;8.40;99.90
43673;DHT22;41723;49.326;8.430;2023-11-18T09:20:15;8.20;99.90
43673;DHT22;41723;49.326;8.430;2023-11-18T09:22:48;8.20;99.90
43673;DHT22;41723;49.326;8.430;2023-11-18T09:25:14;8.30;99.90
43673;DHT22;41723;49.326;8.430;2023-11-18T09:27:41;8.30;99.90
43673;DHT22;41723;49.326;8.430;2023-11-18T09:30:07;8.30;99.90
43673;DHT22;41723;49.326;8.430;2023-11-18T09:32:39;8.30;99.90
43673;DHT22;41723;49.326;8.430;2023-11-18T09:35:08;8.40;99.90
43673;DHT22;41723;49.326;8.430;2023-11-18T09:37:35;8.40;99.90
43673;DHT22;41723;49.326;8.430;2023-11-18T09:40:02;8.50;99.90
43673;DHT22;41723;49.326;8.430;2023-11-18T09:42:37;8.50;99.90
43673;DHT22;41723;49.326;8.430;2023-11-18T09:45:04;8.40;99.90
43673;DHT22;41723;49.326;8.430;2023-11-18T09:47:37;8.50;99.90
43673;DHT22;41723;49.326;8.430;2023-11-18T09:50:08;8.50;99.90
43673;DHT22;41723;49.326;8.430;2023-11-18T09:52:36;8.70;99.90
43673;DHT22;41723;49.326;8.430;2023-11-18T09:55:03;8.60;99.90
43673;DHT22;41723;49.326;8.430;2023-11-18T10:02:24;8.60;99.90
43673;DHT22;41723;49.326;8.430;2023-11-18T10:04:49;8.60;99.90
43673;DHT22;41723;49.326;8.430;2023-11-18T10:07:25;8.60;99.90
43673;DHT22;41723;49.326;8.430;2023-11-18T10:09:57;8.80;99.90
43673;DHT22;41723;49.326;8.430;2023-11-18T10:12:23;8.90;99.90
43673;DHT22;41723;49.326;8.430;2023-11-18T10:14:49;9.00;99.90
43673;DHT22;41723;49.326;8.430;2023-11-18T10:17:17;9.00;99.90
43673;DHT22;41723;49.326;8.430;2023-11-18T10:19:56;9.10;99.90
43673;DHT22;41723;49.326;8.430;2023-11-18T10:22:26;9.10;99.90
43673;DHT22;41723;49.326;8.430;2023-11-18T10:24:54;9.10;99.90
43673;DHT22;41723;49.326;8.430;2023-11-18T10:27:24;9.10;99.90
43673;DHT22;41723;49.326;8.430;2023-11-18T10:29:56;9.20;99.90
43673;DHT22;41723;49.326;8.430;2023-11-18T10:32:22;9.10;99.90
43673;DHT22;41723;49.326;8.430;2023-11-18T10:34:54;9.30;99.90
43673;DHT22;41723;49.326;8.430;2023-11-18T10:37:20;9.30;99.90
43673;DHT22;41723;49.326;8.430;2023-11-18T10:39:48;9.10;99.90
43673;DHT22;41723;49.326;8.430;2023-11-18T10:42:17;9.10;99.90
43673;DHT22;41723;49.326;8.430;2023-11-18T10:44:56;9.00;99.90
43673;DHT22;41723;49.326;8.430;2023-11-18T10:47:42;9.00;99.90
43673;DHT22;41723;49.326;8.430;2023-11-18T10:50:08;8.90;99.90
43673;DHT22;41723;49.326;8.430;2023-11-18T10:52:35;9.00;99.90
43673;DHT22;41723;49.326;8.430;2023-11-18T10:55:03;8.90;99.90
43673;DHT22;41723;49.326;8.430;2023-11-18T10:57:36;9.00;99.90
43673;DHT22;41723;49.326;8.430;2023-11-18T11:00:04;9.00;99.90
43673;DHT22;41723;49.326;8.430;2023-11-18T11:02:38;9.00;99.90
43673;DHT22;41723;49.326;8.430;2023-11-18T11:05:06;8.90;99.90
43673;DHT22;41723;49.326;8.430;2023-11-18T11:07:32;8.90;99.90
43673;DHT22;41723;49.326;8.430;2023-11-18T11:10:01;8.90;99.90
43673;DHT22;41723;49.326;8.430;2023-11-18T11:12:34;8.90;99.90
43673;DHT22;41723;49.326;8.430;2023-11-18T11:15:13;8.90;99.90
43673;DHT22;41723;49.326;8.430;2023-11-18T11:17:57;8.90;99.90
43673;DHT22;41723;49.326;8.430;2023-11-18T11:20:34;9.00;99.90
43673;DHT22;41723;49.326;8.430;2023-11-18T11:23:05;9.00;99.90
43673;DHT22;41723;49.326;8.430;2023-11-18T11:28:11;9.10;99.90
43673;DHT22;41723;49.326;8.430;2023-11-18T11:30:44;9.10;99.90
43673;DHT22;41723;49.326;8.430;2023-11-18T11:35:42;9.20;99.90
43673;DHT22;41723;49.326;8.430;2023-11-18T11:38:12;9.10;99.90
43673;DHT22;41723;49.326;8.430;2023-11-18T11:40:39;9.20;99.90
43673;DHT22;41723;49.326;8.430;2023-11-18T11:43:07;9.20;99.90
43673;DHT22;41723;49.326;8.430;2023-11-18T11:45:36;9.30;99.90
43673;DHT22;41723;49.326;8.430;2023-11-18T11:48:02;9.20;99.90
43673;DHT22;41723;49.326;8.430;2023-11-18T11:51:19;9.20;99.90
43673;DHT22;41723;49.326;8.430;2023-11-18T11:56:42;9.10;99.90
43673;DHT22;41723;49.326;8.430;2023-11-18T11:59:14;9.00;99.90
43673;DHT22;41723;49.326;8.430;2023-11-18T12:01:40;8.90;99.90
43673;DHT22;41723;49.326;8.430;2023-11-18T12:04:15;9.00;99.90
43673;DHT22;41723;49.326;8.430;2023-11-18T12:06:47;9.00;99.90
43673;DHT22;41723;49.326;8.430;2023-11-18T12:09:13;9.00;99.90
43673;DHT22;41723;49.326;8.430;2023-11-18T12:11:48;9.20;99.90
43673;DHT22;41723;49.326;8.430;2023-11-18T12:14:16;9.20;99.90
43673;DHT22;41723;49.326;8.430;2023-11-18T12:19:32;9.00;99.90
43673;DHT22;41723;49.326;8.430;2023-11-18T12:22:02;9.00;99.90
43673;DHT22;41723;49.326;8.430;2023-11-18T12:24:38;9.00;99.90
43673;DHT22;41723;49.326;8.430;2023-11-18T12:27:05;9.10;99.90
43673;DHT22;41723;49.326;8.430;2023-11-18T12:29:41;9.00;99.90
43673;DHT22;41723;49.326;8.430;2023-11-18T12:32:09;9.00;99.90
43673;DHT22;41723;49.326;8.430;2023-11-18T12:34:51;8.90;99.90
43673;DHT22;41723;49.326;8.430;2023-11-18T12:40:02;9.00;99.90
43673;DHT22;41723;49.326;8.430;2023-11-18T12:42:46;8.90;99.90
43673;DHT22;41723;49.326;8.430;2023-11-18T12:48:02;8.90;99.90
43673;DHT22;41723;49.326;8.430;2023-11-18T12:50:43;8.90;99.90
43673;DHT22;41723;49.326;8.430;2023-11-18T12:53:11;9.00;99.90
43673;DHT22;41723;49.326;8.430;2023-11-18T12:55:40;9.00;99.90
43673;DHT22;41723;49.326;8.430;2023-11-18T12:58:06;9.00;99.90
43673;DHT22;41723;49.326;8.430;2023-11-18T13:00:32;9.00;99.90
43673;DHT22;41723;49.326;8.430;2023-11-18T13:02:59;9.00;99.90
43673;DHT22;41723;49.326;8.430;2023-11-18T13:05:25;9.00;99.90
43673;DHT22;41723;49.326;8.430;2023-11-18T13:07:55;9.10;99.90
43673;DHT22;41723;49.326;8.430;2023-11-18T13:10:21;9.10;99.90
43673;DHT22;41723;49.326;8.430;2023-11-18T13:12:47;9.10;99.90
43673;DHT22;41723;49.326;8.430;2023-11-18T13:15:13;9.20;99.90
43673;DHT22;41723;49.326;8.430;2023-11-18T13:17:38;9.10;99.90
43673;DHT22;41723;49.326;8.430;2023-11-18T13:20:12;9.20;99.90
43673;DHT22;41723;49.326;8.430;2023-11-18T13:22:39;9.30;99.90
43673;DHT22;41723;49.326;8.430;2023-11-18T13:25:04;9.30;99.90
43673;DHT22;41723;49.326;8.430;2023-11-18T13:27:30;9.30;99.90
43673;DHT22;41723;49.326;8.430;2023-11-18T13:30:00;9.30;99.90
43673;DHT22;41723;49.326;8.430;2023-11-18T13:32:26;9.30;99.90
43673;DHT22;41723;49.326;8.430;2023-11-18T13:34:52;9.40;99.90
43673;DHT22;41723;49.326;8.430;2023-11-18T13:37:18;9.40;99.90
43673;DHT22;41723;49.326;8.430;2023-11-18T13:39:54;9.40;99.90
43673;DHT22;41723;49.326;8.430;2023-11-18T13:42:20;9.40;99.90
43673;DHT22;41723;49.326;8.430;2023-11-18T13:44:46;9.40;99.90
43673;DHT22;41723;49.326;8.430;2023-11-18T13:47:13;9.40;99.90
43673;DHT22;41723;49.326;8.430;2023-11-18T13:49:41;9.40;99.90
43673;DHT22;41723;49.326;8.430;2023-11-18T13:52:07;9.30;99.90
43673;DHT22;41723;49.326;8.430;2023-11-18T13:54:36;9.40;99.90
43673;DHT22;41723;49.326;8.430;2023-11-18T13:57:02;9.40;99.90
43673;DHT22;41723;49.326;8.430;2023-11-18T13:59:28;9.40;99.90
43673;DHT22;41723;49.326;8.430;2023-11-18T14:01:54;9.40;99.90
43673;DHT22;41723;49.326;8.430;2023-11-18T14:04:26;9.50;99.90
43673;DHT22;41723;49.326;8.430;2023-11-18T14:07:02;9.40;99.90
43673;DHT22;41723;49.326;8.430;2023-11-18T14:09:30;9.40;99.90
43673;DHT22;41723;49.326;8.430;2023-11-18T14:11:58;9.50;99.90
43673;DHT22;41723;49.326;8.430;2023-11-18T14:14:23;9.40;99.90
43673;DHT22;41723;49.326;8.430;2023-11-18T14:16:51;9.40;99.90
43673;DHT22;41723;49.326;8.430;2023-11-18T14:19:19;9.50;99.90
43673;DHT22;41723;49.326;8.430;2023-11-18T14:21:45;9.40;99.90
43673;DHT22;41723;49.326;8.430;2023-11-18T14:24:10;9.40;99.90
43673;DHT22;41723;49.326;8.430;2023-11-18T14:26:37;9.40;99.90
43673;DHT22;41723;49.326;8.430;2023-11-18T14:29:05;9.40;99.90
43673;DHT22;41723;49.326;8.430;2023-11-18T14:31:32;9.40;99.90
43673;DHT22;41723;49.326;8.430;2023-11-18T14:33:59;9.50;99.90
43673;DHT22;41723;49.326;8.430;2023-11-18T14:36:25;9.40;99.90
43673;DHT22;41723;49.326;8.430;2023-11-18T14:38:51;9.50;99.90
43673;DHT22;41723;49.326;8.430;2023-11-18T14:41:16;9.50;99.90
43673;DHT22;41723;49.326;8.430;2023-11-18T14:43:42;9.50;99.90
43673;DHT22;41723;49.326;8.430;2023-11-18T14:46:08;9.50;99.90
43673;DHT22;41723;49.326;8.430;2023-11-18T14:48:34;9.50;99.90
43673;DHT22;41723;49.326;8.430;2023-11-18T14:50:59;9.50;99.90
43673;DHT22;41723;49.326;8.430;2023-11-18T14:53:25;9.60;99.90
43673;DHT22;41723;49.326;8.430;2023-11-18T14:55:51;9.60;99.90
43673;DHT22;41723;49.326;8.430;2023-11-18T14:58:17;9.60;99.90
43673;DHT22;41723;49.326;8.430;2023-11-18T15:00:42;9.60;99.90
43673;DHT22;41723;49.326;8.430;2023-11-18T15:03:08;9.60;99.90
43673;DHT22;41723;49.326;8.430;2023-11-18T15:05:34;9.60;99.90
43673;DHT22;41723;49.326;8.430;2023-11-18T15:08:00;9.60;99.90
43673;DHT22;41723;49.326;8.430;2023-11-18T15:10:26;9.60;99.90
43673;DHT22;41723;49.326;8.430;2023-11-18T15:12:53;9.60;99.90
43673;DHT22;41723;49.326;8.430;2023-11-18T15:15:20;9.60;99.90
43673;DHT22;41723;49.326;8.430;2023-11-18T15:17:46;9.60;99.90
43673;DHT22;41723;49.326;8.430;2023-11-18T15:20:14;9.60;99.90
43673;DHT22;41723;49.326;8.430;2023-11-18T15:22:40;9.60;99.90
43673;DHT22;41723;49.326;8.430;2023-11-18T15:25:07;9.60;99.90
43673;DHT22;41723;49.326;8.430;2023-11-18T15:27:41;9.70;99.90
43673;DHT22;41723;49.326;8.430;2023-11-18T15:30:07;9.60;99.90
43673;DHT22;41723;49.326;8.430;2023-11-18T15:32:36;9.60;99.90
43673;DHT22;41723;49.326;8.430;2023-11-18T15:35:02;9.60;99.90
43673;DHT22;41723;49.326;8.430;2023-11-18T15:37:28;9.60;99.90
43673;DHT22;41723;49.326;8.430;2023-11-18T15:39:54;9.60;99.90
43673;DHT22;41723;49.326;8.430;2023-11-18T15:42:21;9.60;99.90
43673;DHT22;41723;49.326;8.430;2023-11-18T15:44:46;9.70;99.90
43673;DHT22;41723;49.326;8.430;2023-11-18T15:47:12;9.70;99.90
43673;DHT22;41723;49.326;8.430;2023-11-18T15:49:39;9.70;99.90
43673;DHT22;41723;49.326;8.430;2023-11-18T15:52:04;9.60;99.90
43673;DHT22;41723;49.326;8.430;2023-11-18T15:54:33;9.60;99.90
43673;DHT22;41723;49.326;8.430;2023-11-18T15:56:58;9.60;99.90
43673;DHT22;41723;49.326;8.430;2023-11-18T15:59:24;9.70;99.90
43673;DHT22;41723;49.326;8.430;2023-11-18T16:01:51;9.70;99.90
43673;DHT22;41723;49.326;8.430;2023-11-18T16:04:17;9.80;99.90
43673;DHT22;41723;49.326;8.430;2023-11-18T16:06:42;9.70;99.90
43673;DHT22;41723;49.326;8.430;2023-11-18T16:09:08;9.80;99.90